sensor_id;sensor_type;location;lat;lon;timestamp;pressure;altitude;pressure_sealevel;temperature;humidity
9035;BME280;4552;43.422;24.592;2022-08-11T00:01:10;100084.66;;;21.23;63.45
9035;BME280;4552;43.422;24.592;2022-08-11T00:03:45;100055.34;;;21.08;63.21
9035;BME280;4552;43.422;24.592;2022-08-11T00:06:23;100060.50;;;21.11;63.18
9035;BME280;4552;43.422;24.592;2022-08-11T00:08:52;100070.16;;;21.29;63.21
9035;BME280;4552;43.422;24.592;2022-08-11T00:11:20;100082.53;;;21.30;62.98
9035;BME280;4552;43.422;24.592;2022-08-11T00:13:49;100057.56;;;21.00;63.56
9035;BME280;4552;43.422;24.592;2022-08-11T00:16:19;100084.41;;;21.28;63.05
9035;BME280;4552;43.422;24.592;2022-08-11T00:18:49;100084.38;;;21.12;63.93
9035;BME280;4552;43.422;24.592;2022-08-11T00:21:19;100054.66;;;21.04;62.83
9035;BME280;4552;43.422;24.592;2022-08-11T00:23:52;100087.50;;;21.36;62.87
9035;BME280;4552;43.422;24.592;2022-08-11T00:26:21;100083.22;;;21.49;61.73
9035;BME280;4552;43.422;24.592;2022-08-11T00:28:48;100078.84;;;21.48;62.00
9035;BME280;4552;43.422;24.592;2022-08-11T00:31:27;100084.25;;;21.62;61.38
9035;BME280;4552;43.422;24.592;2022-08-11T00:33:56;100086.31;;;21.57;61.11
9035;BME280;4552;43.422;24.592;2022-08-11T00:36:27;100067.09;;;21.52;61.45
9035;BME280;4552;43.422;24.592;2022-08-11T00:39:03;100071.63;;;21.50;61.67
9035;BME280;4552;43.422;24.592;2022-08-11T00:41:34;100050.84;;;21.41;61.61
9035;BME280;4552;43.422;24.592;2022-08-11T00:44:16;100057.09;;;21.55;61.00
9035;BME280;4552;43.422;24.592;2022-08-11T00:46:56;100076.00;;;21.51;61.54
9035;BME280;4552;43.422;24.592;2022-08-11T00:49:38;100071.88;;;21.45;61.70
9035;BME280;4552;43.422;24.592;2022-08-11T00:52:15;100070.50;;;21.54;61.46
9035;BME280;4552;43.422;24.592;2022-08-11T00:58:13;100075.91;;;21.37;62.03
9035;BME280;4552;43.422;24.592;2022-08-11T01:01:04;100070.81;;;21.17;62.88
9035;BME280;4552;43.422;24.592;2022-08-11T01:03:53;100080.88;;;21.43;62.28
9035;BME280;4552;43.422;24.592;2022-08-11T01:06:45;100074.13;;;21.53;61.13
9035;BME280;4552;43.422;24.592;2022-08-11T01:09:27;100074.53;;;21.45;61.47
9035;BME280;4552;43.422;24.592;2022-08-11T01:12:14;100063.19;;;21.26;61.82
9035;BME280;4552;43.422;24.592;2022-08-11T01:24:46;100068.00;;;21.35;61.61
9035;BME280;4552;43.422;24.592;2022-08-11T01:36:59;100066.28;;;21.50;61.31
9035;BME280;4552;43.422;24.592;2022-08-11T01:39:55;100062.84;;;21.32;61.95
9035;BME280;4552;43.422;24.592;2022-08-11T01:43:04;100062.25;;;21.43;61.99
9035;BME280;4552;43.422;24.592;2022-08-11T01:45:56;100056.41;;;21.21;62.76
9035;BME280;4552;43.422;24.592;2022-08-11T01:48:40;100055.28;;;21.25;63.33
9035;BME280;4552;43.422;24.592;2022-08-11T01:51:16;100047.19;;;21.26;62.47
9035;BME280;4552;43.422;24.592;2022-08-11T01:53:53;100054.94;;;21.31;63.19
9035;BME280;4552;43.422;24.592;2022-08-11T01:56:37;100049.66;;;21.14;63.35
9035;BME280;4552;43.422;24.592;2022-08-11T01:59:13;100061.38;;;21.27;63.30
9035;BME280;4552;43.422;24.592;2022-08-11T02:01:53;100036.28;;;21.00;63.90
9035;BME280;4552;43.422;24.592;2022-08-11T02:04:30;100047.78;;;21.16;63.78
9035;BME280;4552;43.422;24.592;2022-08-11T02:07:04;100051.41;;;21.15;63.91
9035;BME280;4552;43.422;24.592;2022-08-11T02:09:52;100041.94;;;21.09;63.62
9035;BME280;4552;43.422;24.592;2022-08-11T02:12:40;100032.22;;;20.76;64.66
9035;BME280;4552;43.422;24.592;2022-08-11T02:15:13;100052.56;;;20.94;64.34
9035;BME280;4552;43.422;24.592;2022-08-11T02:17:52;100044.97;;;20.86;64.46
9035;BME280;4552;43.422;24.592;2022-08-11T02:20:27;100036.22;;;20.84;64.81
9035;BME280;4552;43.422;24.592;2022-08-11T02:23:32;100047.78;;;21.16;63.47
9035;BME280;4552;43.422;24.592;2022-08-11T02:26:09;100046.59;;;21.06;64.11
9035;BME280;4552;43.422;24.592;2022-08-11T02:28:56;100041.59;;;21.00;63.98
9035;BME280;4552;43.422;24.592;2022-08-11T02:31:40;100049.59;;;21.00;64.65
9035;BME280;4552;43.422;24.592;2022-08-11T02:34:37;100049.97;;;20.92;64.05
9035;BME280;4552;43.422;24.592;2022-08-11T02:37:15;100050.34;;;21.02;63.75
9035;BME280;4552;43.422;24.592;2022-08-11T02:39:51;100039.03;;;20.98;64.02
9035;BME280;4552;43.422;24.592;2022-08-11T02:42:29;100042.81;;;21.10;64.10
9035;BME280;4552;43.422;24.592;2022-08-11T02:45:15;100040.66;;;21.01;64.27
9035;BME280;4552;43.422;24.592;2022-08-11T02:51:08;100046.59;;;21.06;64.23
9035;BME280;4552;43.422;24.592;2022-08-11T02:53:44;100036.59;;;20.94;64.11
9035;BME280;4552;43.422;24.592;2022-08-11T02:56:20;100045.91;;;21.02;64.19
9035;BME280;4552;43.422;24.592;2022-08-11T02:58:55;100047.53;;;21.20;63.39
9035;BME280;4552;43.422;24.592;2022-08-11T03:01:50;100027.59;;;20.96;64.52
9035;BME280;4552;43.422;24.592;2022-08-11T03:04:24;100028.16;;;20.86;65.15
9035;BME280;4552;43.422;24.592;2022-08-11T03:07:00;100039.19;;;21.11;64.31
9035;BME280;4552;43.422;24.592;2022-08-11T03:09:43;100032.50;;;21.04;64.72
9035;BME280;4552;43.422;24.592;2022-08-11T03:12:17;100024.13;;;20.94;64.88
9035;BME280;4552;43.422;24.592;2022-08-11T03:15:11;100026.09;;;20.91;65.79
9035;BME280;4552;43.422;24.592;2022-08-11T03:18:03;100032.25;;;21.08;64.35
9035;BME280;4552;43.422;24.592;2022-08-11T03:20:38;100041.28;;;21.06;64.69
9035;BME280;4552;43.422;24.592;2022-08-11T03:23:16;100051.38;;;20.99;65.25
9035;BME280;4552;43.422;24.592;2022-08-11T03:25:52;100043.31;;;21.01;65.14
9035;BME280;4552;43.422;24.592;2022-08-11T03:28:27;100051.22;;;21.02;65.92
9035;BME280;4552;43.422;24.592;2022-08-11T03:31:07;100036.75;;;20.91;65.75
9035;BME280;4552;43.422;24.592;2022-08-11T03:33:40;100042.75;;;20.94;65.47
9035;BME280;4552;43.422;24.592;2022-08-11T03:39:41;100029.94;;;20.85;66.08
9035;BME280;4552;43.422;24.592;2022-08-11T03:42:27;100039.13;;;20.97;65.81
9035;BME280;4552;43.422;24.592;2022-08-11T03:45:04;100027.28;;;20.85;66.15
9035;BME280;4552;43.422;24.592;2022-08-11T03:47:57;100023.53;;;20.89;66.33
9035;BME280;4552;43.422;24.592;2022-08-11T03:50:40;100028.94;;;20.88;65.89
9035;BME280;4552;43.422;24.592;2022-08-11T03:53:15;100001.00;;;20.79;66.30
9035;BME280;4552;43.422;24.592;2022-08-11T03:56:09;100034.00;;;20.92;66.28
9035;BME280;4552;43.422;24.592;2022-08-11T03:59:11;100021.94;;;21.02;66.26
9035;BME280;4552;43.422;24.592;2022-08-11T04:02:13;100041.09;;;21.09;65.57
9035;BME280;4552;43.422;24.592;2022-08-11T04:04:58;100032.25;;;21.24;64.81
9035;BME280;4552;43.422;24.592;2022-08-11T04:11:00;100051.94;;;21.37;64.80
9035;BME280;4552;43.422;24.592;2022-08-11T04:14:14;100049.69;;;21.45;64.36
9035;BME280;4552;43.422;24.592;2022-08-11T04:17:44;100050.41;;;21.48;64.11
9035;BME280;4552;43.422;24.592;2022-08-11T04:20:31;100052.81;;;21.53;64.32
9035;BME280;4552;43.422;24.592;2022-08-11T04:23:13;100046.00;;;21.63;64.55
9035;BME280;4552;43.422;24.592;2022-08-11T04:26:04;100051.88;;;21.85;63.41
9035;BME280;4552;43.422;24.592;2022-08-11T04:28:59;100047.63;;;21.96;62.74
9035;BME280;4552;43.422;24.592;2022-08-11T04:31:36;100051.16;;;21.66;64.28
9035;BME280;4552;43.422;24.592;2022-08-11T04:34:20;100049.25;;;21.99;62.68
9035;BME280;4552;43.422;24.592;2022-08-11T04:37:10;100054.63;;;22.13;62.47
9035;BME280;4552;43.422;24.592;2022-08-11T04:46:25;100058.66;;;22.20;61.85
9035;BME280;4552;43.422;24.592;2022-08-11T04:52:27;100063.72;;;22.24;62.42
9035;BME280;4552;43.422;24.592;2022-08-11T04:55:43;100071.13;;;22.49;61.04
9035;BME280;4552;43.422;24.592;2022-08-11T04:58:47;100063.53;;;22.27;62.74
9035;BME280;4552;43.422;24.592;2022-08-11T05:01:45;100052.41;;;22.65;61.27
9035;BME280;4552;43.422;24.592;2022-08-11T05:04:38;100059.38;;;22.67;60.96
9035;BME280;4552;43.422;24.592;2022-08-11T05:08:07;100061.56;;;22.45;61.35
9035;BME280;4552;43.422;24.592;2022-08-11T05:10:58;100059.19;;;22.70;60.50
9035;BME280;4552;43.422;24.592;2022-08-11T05:13:31;100047.97;;;22.50;60.73
9035;BME280;4552;43.422;24.592;2022-08-11T05:16:23;100052.50;;;22.63;60.56
9035;BME280;4552;43.422;24.592;2022-08-11T05:19:15;100059.56;;;22.78;59.99
9035;BME280;4552;43.422;24.592;2022-08-11T05:22:00;100050.50;;;22.95;59.30
9035;BME280;4552;43.422;24.592;2022-08-11T05:24:49;100064.44;;;23.00;59.30
9035;BME280;4552;43.422;24.592;2022-08-11T05:27:36;100063.69;;;23.26;58.60
9035;BME280;4552;43.422;24.592;2022-08-11T05:30:26;100068.38;;;23.63;58.13
9035;BME280;4552;43.422;24.592;2022-08-11T05:33:18;100067.63;;;24.02;56.71
9035;BME280;4552;43.422;24.592;2022-08-11T05:36:15;100055.13;;;23.88;56.42
9035;BME280;4552;43.422;24.592;2022-08-11T05:38:53;100052.06;;;24.72;54.67
9035;BME280;4552;43.422;24.592;2022-08-11T05:41:41;100064.97;;;25.16;52.44
9035;BME280;4552;43.422;24.592;2022-08-11T05:44:26;100066.84;;;26.24;49.18
9035;BME280;4552;43.422;24.592;2022-08-11T05:47:21;100069.47;;;27.04;47.08
9035;BME280;4552;43.422;24.592;2022-08-11T05:50:08;100074.66;;;28.05;45.10
9035;BME280;4552;43.422;24.592;2022-08-11T05:52:53;100071.56;;;27.11;46.00
9035;BME280;4552;43.422;24.592;2022-08-11T05:55:39;100053.69;;;26.08;49.32
9035;BME280;4552;43.422;24.592;2022-08-11T05:58:26;100065.81;;;26.48;48.72
9035;BME280;4552;43.422;24.592;2022-08-11T06:00:58;100064.75;;;26.27;48.69
9035;BME280;4552;43.422;24.592;2022-08-11T06:03:27;100067.19;;;25.83;49.23
9035;BME280;4552;43.422;24.592;2022-08-11T06:05:56;100060.47;;;25.29;50.96
9035;BME280;4552;43.422;24.592;2022-08-11T06:08:28;100049.59;;;24.82;52.02
9035;BME280;4552;43.422;24.592;2022-08-11T06:11:00;100047.75;;;24.82;52.78
9035;BME280;4552;43.422;24.592;2022-08-11T06:13:32;100059.44;;;25.06;52.84
9035;BME280;4552;43.422;24.592;2022-08-11T06:16:00;100057.09;;;24.77;52.30
9035;BME280;4552;43.422;24.592;2022-08-11T06:18:28;100062.63;;;25.24;51.07
9035;BME280;4552;43.422;24.592;2022-08-11T06:20:57;100059.84;;;25.38;51.55
9035;BME280;4552;43.422;24.592;2022-08-11T06:23:32;100045.84;;;24.84;51.97
9035;BME280;4552;43.422;24.592;2022-08-11T06:25:59;100025.56;;;24.55;52.50
9035;BME280;4552;43.422;24.592;2022-08-11T06:28:32;100030.97;;;24.80;52.01
9035;BME280;4552;43.422;24.592;2022-08-11T06:31:08;100041.53;;;25.07;51.86
9035;BME280;4552;43.422;24.592;2022-08-11T06:33:38;100032.22;;;24.75;51.22
9035;BME280;4552;43.422;24.592;2022-08-11T06:36:21;100051.31;;;24.95;51.11
9035;BME280;4552;43.422;24.592;2022-08-11T06:38:58;100040.75;;;25.30;50.21
9035;BME280;4552;43.422;24.592;2022-08-11T06:41:33;100053.16;;;25.43;50.15
9035;BME280;4552;43.422;24.592;2022-08-11T06:44:14;100046.31;;;25.27;50.01
9035;BME280;4552;43.422;24.592;2022-08-11T06:46:45;100044.00;;;25.10;50.65
9035;BME280;4552;43.422;24.592;2022-08-11T06:49:16;100039.03;;;25.29;50.07
9035;BME280;4552;43.422;24.592;2022-08-11T06:52:08;100041.16;;;25.49;49.43
9035;BME280;4552;43.422;24.592;2022-08-11T06:54:40;100040.69;;;25.68;49.02
9035;BME280;4552;43.422;24.592;2022-08-11T06:57:13;100043.72;;;26.10;48.27
9035;BME280;4552;43.422;24.592;2022-08-11T06:59:59;100060.13;;;25.82;48.32
9035;BME280;4552;43.422;24.592;2022-08-11T07:02:50;100057.16;;;25.74;48.38
9035;BME280;4552;43.422;24.592;2022-08-11T07:05:22;100050.41;;;25.69;48.25
9035;BME280;4552;43.422;24.592;2022-08-11T07:08:16;100038.59;;;25.71;48.02
9035;BME280;4552;43.422;24.592;2022-08-11T07:11:19;100053.22;;;25.91;48.04
9035;BME280;4552;43.422;24.592;2022-08-11T07:14:27;100058.50;;;25.56;47.65
9035;BME280;4552;43.422;24.592;2022-08-11T07:17:16;100058.81;;;25.03;49.00
9035;BME280;4552;43.422;24.592;2022-08-11T07:19:50;100061.81;;;25.11;49.35
9035;BME280;4552;43.422;24.592;2022-08-11T07:22:36;100046.19;;;25.77;48.29
9035;BME280;4552;43.422;24.592;2022-08-11T07:25:22;100063.94;;;25.67;48.29
9035;BME280;4552;43.422;24.592;2022-08-11T07:28:17;100059.63;;;25.41;48.35
9035;BME280;4552;43.422;24.592;2022-08-11T07:31:09;100053.50;;;25.39;48.66
9035;BME280;4552;43.422;24.592;2022-08-11T07:33:43;100066.13;;;25.86;48.72
9035;BME280;4552;43.422;24.592;2022-08-11T07:36:12;100070.72;;;25.60;48.06
9035;BME280;4552;43.422;24.592;2022-08-11T07:38:46;100058.34;;;25.34;48.45
9035;BME280;4552;43.422;24.592;2022-08-11T07:41:17;100054.56;;;25.73;48.12
9035;BME280;4552;43.422;24.592;2022-08-11T07:43:50;100054.34;;;25.76;47.84
9035;BME280;4552;43.422;24.592;2022-08-11T07:46:19;100071.56;;;25.61;48.56
9035;BME280;4552;43.422;24.592;2022-08-11T07:49:07;100066.28;;;25.95;47.80
9035;BME280;4552;43.422;24.592;2022-08-11T07:51:54;100073.03;;;26.59;45.60
9035;BME280;4552;43.422;24.592;2022-08-11T07:54:39;100072.03;;;26.14;46.70
9035;BME280;4552;43.422;24.592;2022-08-11T07:57:08;100063.69;;;26.06;47.49
9035;BME280;4552;43.422;24.592;2022-08-11T07:59:53;100054.88;;;25.81;47.93
9035;BME280;4552;43.422;24.592;2022-08-11T08:02:40;100064.56;;;25.94;47.58
9035;BME280;4552;43.422;24.592;2022-08-11T08:05:28;100046.66;;;26.18;47.11
9035;BME280;4552;43.422;24.592;2022-08-11T08:08:14;100053.69;;;26.32;45.85
9035;BME280;4552;43.422;24.592;2022-08-11T08:10:59;100066.50;;;26.05;46.45
9035;BME280;4552;43.422;24.592;2022-08-11T08:13:44;100056.38;;;26.08;46.65
9035;BME280;4552;43.422;24.592;2022-08-11T08:16:30;100064.16;;;26.00;47.00
9035;BME280;4552;43.422;24.592;2022-08-11T08:19:16;100067.06;;;26.21;46.71
9035;BME280;4552;43.422;24.592;2022-08-11T08:21:46;100057.72;;;26.03;47.42
9035;BME280;4552;43.422;24.592;2022-08-11T08:24:14;100056.84;;;26.02;46.95
9035;BME280;4552;43.422;24.592;2022-08-11T08:26:42;100039.44;;;25.95;47.00
9035;BME280;4552;43.422;24.592;2022-08-11T08:29:26;100064.97;;;26.24;46.84
9035;BME280;4552;43.422;24.592;2022-08-11T08:32:11;100071.34;;;26.23;46.16
9035;BME280;4552;43.422;24.592;2022-08-11T08:34:41;100051.19;;;26.29;46.11
9035;BME280;4552;43.422;24.592;2022-08-11T08:37:10;100064.97;;;26.13;46.95
9035;BME280;4552;43.422;24.592;2022-08-11T08:39:38;100042.13;;;25.95;47.07
9035;BME280;4552;43.422;24.592;2022-08-11T08:42:07;100062.22;;;26.37;45.23
9035;BME280;4552;43.422;24.592;2022-08-11T08:44:40;100072.50;;;26.77;45.55
9035;BME280;4552;43.422;24.592;2022-08-11T08:47:12;100063.94;;;26.72;45.53
9035;BME280;4552;43.422;24.592;2022-08-11T08:49:50;100058.50;;;26.61;46.20
9035;BME280;4552;43.422;24.592;2022-08-11T08:52:36;100058.34;;;26.52;45.88
9035;BME280;4552;43.422;24.592;2022-08-11T08:55:10;100057.78;;;26.25;46.73
9035;BME280;4552;43.422;24.592;2022-08-11T08:57:48;100031.13;;;25.87;47.21
9035;BME280;4552;43.422;24.592;2022-08-11T09:00:38;100048.34;;;26.08;47.40
9035;BME280;4552;43.422;24.592;2022-08-11T09:03:12;100049.91;;;26.00;46.43
9035;BME280;4552;43.422;24.592;2022-08-11T09:05:40;100049.31;;;26.07;47.05
9035;BME280;4552;43.422;24.592;2022-08-11T09:08:09;100030.44;;;26.20;46.33
9035;BME280;4552;43.422;24.592;2022-08-11T09:10:37;100034.63;;;26.24;45.74
9035;BME280;4552;43.422;24.592;2022-08-11T09:13:05;100042.56;;;26.25;45.48
9035;BME280;4552;43.422;24.592;2022-08-11T09:15:36;100047.34;;;26.33;46.12
9035;BME280;4552;43.422;24.592;2022-08-11T09:18:04;100028.94;;;26.39;45.01
9035;BME280;4552;43.422;24.592;2022-08-11T09:20:37;100013.63;;;26.18;45.75
9035;BME280;4552;43.422;24.592;2022-08-11T09:23:05;100031.84;;;26.47;45.95
9035;BME280;4552;43.422;24.592;2022-08-11T09:25:54;100043.91;;;26.76;44.68
9035;BME280;4552;43.422;24.592;2022-08-11T09:28:54;100028.19;;;26.83;43.92
9035;BME280;4552;43.422;24.592;2022-08-11T09:31:35;100039.28;;;26.78;43.81
9035;BME280;4552;43.422;24.592;2022-08-11T09:34:03;100047.13;;;27.03;43.90
9035;BME280;4552;43.422;24.592;2022-08-11T09:36:32;100041.16;;;27.11;43.26
9035;BME280;4552;43.422;24.592;2022-08-11T09:39:17;100028.41;;;26.80;44.47
9035;BME280;4552;43.422;24.592;2022-08-11T09:42:04;100023.56;;;26.96;43.62
9035;BME280;4552;43.422;24.592;2022-08-11T09:44:34;100032.34;;;26.76;44.07
9035;BME280;4552;43.422;24.592;2022-08-11T09:47:18;100028.75;;;26.64;44.41
9035;BME280;4552;43.422;24.592;2022-08-11T09:49:48;100029.25;;;26.69;44.74
9035;BME280;4552;43.422;24.592;2022-08-11T09:52:18;100031.38;;;26.88;44.44
9035;BME280;4552;43.422;24.592;2022-08-11T09:54:48;100019.25;;;26.71;43.43
9035;BME280;4552;43.422;24.592;2022-08-11T09:57:22;100009.72;;;27.23;43.12
9035;BME280;4552;43.422;24.592;2022-08-11T10:00:10;100013.59;;;27.63;42.94
9035;BME280;4552;43.422;24.592;2022-08-11T10:02:40;100000.91;;;27.43;42.63
9035;BME280;4552;43.422;24.592;2022-08-11T10:12:57;100011.13;;;27.71;41.61
9035;BME280;4552;43.422;24.592;2022-08-11T10:15:27;100005.34;;;27.33;43.25
9035;BME280;4552;43.422;24.592;2022-08-11T10:18:07;99988.84;;;27.04;43.59
9035;BME280;4552;43.422;24.592;2022-08-11T10:20:59;99989.69;;;27.16;43.63
9035;BME280;4552;43.422;24.592;2022-08-11T10:23:31;100000.44;;;27.27;43.23
9035;BME280;4552;43.422;24.592;2022-08-11T10:26:17;100016.47;;;27.93;42.51
9035;BME280;4552;43.422;24.592;2022-08-11T10:29:04;100021.84;;;27.93;41.53
9035;BME280;4552;43.422;24.592;2022-08-11T10:31:54;100018.31;;;27.81;43.05
9035;BME280;4552;43.422;24.592;2022-08-11T10:34:39;100024.59;;;27.71;42.02
9035;BME280;4552;43.422;24.592;2022-08-11T10:37:07;99991.94;;;27.64;43.00
9035;BME280;4552;43.422;24.592;2022-08-11T10:39:38;100008.47;;;27.60;42.20
9035;BME280;4552;43.422;24.592;2022-08-11T10:42:21;100003.63;;;27.43;43.08
9035;BME280;4552;43.422;24.592;2022-08-11T10:45:08;99998.75;;;27.37;43.21
9035;BME280;4552;43.422;24.592;2022-08-11T10:47:52;99986.53;;;26.99;43.78
9035;BME280;4552;43.422;24.592;2022-08-11T10:50:22;99965.88;;;26.89;43.21
9035;BME280;4552;43.422;24.592;2022-08-11T10:53:07;99972.91;;;27.45;42.97
9035;BME280;4552;43.422;24.592;2022-08-11T10:55:52;99974.94;;;27.64;42.81
9035;BME280;4552;43.422;24.592;2022-08-11T10:58:38;99985.44;;;27.67;41.96
9035;BME280;4552;43.422;24.592;2022-08-11T11:01:21;99980.91;;;27.78;41.92
9035;BME280;4552;43.422;24.592;2022-08-11T11:03:50;99977.09;;;27.38;42.86
9035;BME280;4552;43.422;24.592;2022-08-11T11:06:34;99970.84;;;27.38;42.64
9035;BME280;4552;43.422;24.592;2022-08-11T11:09:13;99978.09;;;27.37;43.35
9035;BME280;4552;43.422;24.592;2022-08-11T11:11:47;99970.59;;;27.41;42.73
9035;BME280;4552;43.422;24.592;2022-08-11T11:14:33;99951.06;;;27.17;42.74
9035;BME280;4552;43.422;24.592;2022-08-11T11:17:25;99962.75;;;27.49;43.04
9035;BME280;4552;43.422;24.592;2022-08-11T11:20:16;99964.75;;;27.25;42.58
9035;BME280;4552;43.422;24.592;2022-08-11T11:22:45;99942.50;;;27.11;42.54
9035;BME280;4552;43.422;24.592;2022-08-11T11:25:21;99966.72;;;27.11;42.87
9035;BME280;4552;43.422;24.592;2022-08-11T11:28:05;99968.09;;;27.28;42.41
9035;BME280;4552;43.422;24.592;2022-08-11T11:30:44;99955.56;;;27.49;42.16
9035;BME280;4552;43.422;24.592;2022-08-11T11:33:23;99955.84;;;27.67;41.93
9035;BME280;4552;43.422;24.592;2022-08-11T11:36:07;99953.81;;;27.91;41.50
9035;BME280;4552;43.422;24.592;2022-08-11T11:38:39;99937.50;;;27.72;41.99
9035;BME280;4552;43.422;24.592;2022-08-11T11:41:11;99945.25;;;27.86;41.31
9035;BME280;4552;43.422;24.592;2022-08-11T11:43:51;99949.44;;;27.79;41.64
9035;BME280;4552;43.422;24.592;2022-08-11T11:46:19;99948.41;;;27.59;41.47
9035;BME280;4552;43.422;24.592;2022-08-11T11:48:48;99923.03;;;27.73;41.69
9035;BME280;4552;43.422;24.592;2022-08-11T11:51:15;99932.28;;;27.59;41.79
9035;BME280;4552;43.422;24.592;2022-08-11T11:53:44;99930.09;;;27.53;41.91
9035;BME280;4552;43.422;24.592;2022-08-11T11:56:15;99942.44;;;27.56;41.63
9035;BME280;4552;43.422;24.592;2022-08-11T11:58:43;99936.25;;;28.07;40.55
9035;BME280;4552;43.422;24.592;2022-08-11T12:01:29;99938.28;;;27.83;41.04
9035;BME280;4552;43.422;24.592;2022-08-11T12:04:03;99942.63;;;28.27;41.31
9035;BME280;4552;43.422;24.592;2022-08-11T12:06:31;99937.81;;;28.10;40.88
9035;BME280;4552;43.422;24.592;2022-08-11T12:08:59;99940.41;;;27.80;41.10
9035;BME280;4552;43.422;24.592;2022-08-11T12:11:28;99923.03;;;27.73;40.82
9035;BME280;4552;43.422;24.592;2022-08-11T12:14:16;99929.16;;;28.27;40.34
9035;BME280;4552;43.422;24.592;2022-08-11T12:16:46;99922.84;;;28.58;39.50
9035;BME280;4552;43.422;24.592;2022-08-11T12:19:17;99930.97;;;29.07;39.50
9035;BME280;4552;43.422;24.592;2022-08-11T12:21:46;99925.16;;;29.12;38.46
9035;BME280;4552;43.422;24.592;2022-08-11T12:24:33;99916.09;;;28.73;39.06
9035;BME280;4552;43.422;24.592;2022-08-11T12:27:20;99911.19;;;28.37;39.80
9035;BME280;4552;43.422;24.592;2022-08-11T12:29:49;99903.19;;;28.46;39.97
9035;BME280;4552;43.422;24.592;2022-08-11T12:32:17;99909.75;;;28.33;40.56
9035;BME280;4552;43.422;24.592;2022-08-11T12:34:47;99896.13;;;28.55;40.45
9035;BME280;4552;43.422;24.592;2022-08-11T12:37:19;99903.38;;;28.54;39.63
9035;BME280;4552;43.422;24.592;2022-08-11T12:39:51;99909.00;;;28.82;40.34
9035;BME280;4552;43.422;24.592;2022-08-11T12:42:36;99909.09;;;28.61;39.75
9035;BME280;4552;43.422;24.592;2022-08-11T12:45:24;99894.25;;;28.76;39.09
9035;BME280;4552;43.422;24.592;2022-08-11T12:48:02;99891.25;;;29.09;39.05
9035;BME280;4552;43.422;24.592;2022-08-11T12:50:57;99871.38;;;28.61;40.03
9035;BME280;4552;43.422;24.592;2022-08-11T12:53:50;99895.03;;;28.37;40.65
9035;BME280;4552;43.422;24.592;2022-08-11T12:56:19;99879.94;;;28.25;40.97
9035;BME280;4552;43.422;24.592;2022-08-11T12:59:04;99884.72;;;28.42;40.35
9035;BME280;4552;43.422;24.592;2022-08-11T13:01:50;99887.22;;;28.94;39.82
9035;BME280;4552;43.422;24.592;2022-08-11T13:04:34;99887.41;;;28.62;39.84
9035;BME280;4552;43.422;24.592;2022-08-11T13:07:25;99889.47;;;28.89;39.38
9035;BME280;4552;43.422;24.592;2022-08-11T13:09:54;99867.41;;;28.35;40.34
9035;BME280;4552;43.422;24.592;2022-08-11T13:12:22;99875.88;;;28.30;40.28
9035;BME280;4552;43.422;24.592;2022-08-11T13:15:09;99870.09;;;28.35;40.31
9035;BME280;4552;43.422;24.592;2022-08-11T13:17:37;99873.47;;;28.57;39.90
9035;BME280;4552;43.422;24.592;2022-08-11T13:20:08;99868.94;;;28.58;39.70
9035;BME280;4552;43.422;24.592;2022-08-11T13:22:43;99856.91;;;28.32;40.36
9035;BME280;4552;43.422;24.592;2022-08-11T13:25:11;99861.88;;;28.46;40.47
9035;BME280;4552;43.422;24.592;2022-08-11T13:27:41;99861.50;;;28.50;39.58
9035;BME280;4552;43.422;24.592;2022-08-11T13:30:11;99875.72;;;28.52;40.59
9035;BME280;4552;43.422;24.592;2022-08-11T13:32:57;99864.72;;;28.65;40.64
9035;BME280;4552;43.422;24.592;2022-08-11T13:35:25;99861.47;;;28.41;40.08
9035;BME280;4552;43.422;24.592;2022-08-11T13:37:56;99860.59;;;28.61;40.27
9035;BME280;4552;43.422;24.592;2022-08-11T13:40:24;99856.34;;;28.68;39.99
9035;BME280;4552;43.422;24.592;2022-08-11T13:42:51;99869.72;;;28.49;40.27
9035;BME280;4552;43.422;24.592;2022-08-11T13:45:21;99847.22;;;28.50;39.70
9035;BME280;4552;43.422;24.592;2022-08-11T13:48:03;99862.50;;;28.49;39.57
9035;BME280;4552;43.422;24.592;2022-08-11T13:50:33;99855.81;;;28.44;39.11
9035;BME280;4552;43.422;24.592;2022-08-11T13:53:20;99856.63;;;28.44;39.60
9035;BME280;4552;43.422;24.592;2022-08-11T13:55:53;99852.66;;;28.39;40.23
9035;BME280;4552;43.422;24.592;2022-08-11T13:58:53;99850.22;;;28.56;40.09
9035;BME280;4552;43.422;24.592;2022-08-11T14:01:23;99851.31;;;29.03;39.49
9035;BME280;4552;43.422;24.592;2022-08-11T14:04:15;99848.09;;;29.09;38.99
9035;BME280;4552;43.422;24.592;2022-08-11T14:06:50;99851.22;;;28.65;40.14
9035;BME280;4552;43.422;24.592;2022-08-11T14:09:37;99823.28;;;28.66;40.00
9035;BME280;4552;43.422;24.592;2022-08-11T14:12:08;99849.00;;;28.70;39.75
9035;BME280;4552;43.422;24.592;2022-08-11T14:14:59;99845.19;;;28.82;39.56
9035;BME280;4552;43.422;24.592;2022-08-11T14:17:30;99840.94;;;28.89;39.01
9035;BME280;4552;43.422;24.592;2022-08-11T14:20:03;99851.44;;;28.92;38.94
9035;BME280;4552;43.422;24.592;2022-08-11T14:22:34;99842.63;;;28.81;39.28
9035;BME280;4552;43.422;24.592;2022-08-11T14:25:06;99834.78;;;29.17;38.78
9035;BME280;4552;43.422;24.592;2022-08-11T14:27:34;99848.13;;;29.28;39.13
9035;BME280;4552;43.422;24.592;2022-08-11T14:30:01;99848.41;;;29.35;38.16
9035;BME280;4552;43.422;24.592;2022-08-11T14:32:30;99837.84;;;29.03;38.13
9035;BME280;4552;43.422;24.592;2022-08-11T14:34:58;99817.69;;;28.98;38.85
9035;BME280;4552;43.422;24.592;2022-08-11T14:37:26;99833.06;;;29.07;37.82
9035;BME280;4552;43.422;24.592;2022-08-11T14:39:56;99846.22;;;29.00;38.37
9035;BME280;4552;43.422;24.592;2022-08-11T14:42:26;99840.97;;;28.99;38.50
9035;BME280;4552;43.422;24.592;2022-08-11T14:45:25;99837.47;;;29.17;38.84
9035;BME280;4552;43.422;24.592;2022-08-11T14:48:01;99841.84;;;29.09;38.76
9035;BME280;4552;43.422;24.592;2022-08-11T14:50:31;99831.53;;;28.74;39.20
9035;BME280;4552;43.422;24.592;2022-08-11T14:53:05;99820.59;;;28.66;39.10
9035;BME280;4552;43.422;24.592;2022-08-11T14:55:35;99831.53;;;28.74;38.94
9035;BME280;4552;43.422;24.592;2022-08-11T14:58:27;99832.69;;;28.72;38.65